Pagrindinis puslapis
METAR-TAF:

METAR-TAF

Oro uostai :

Dakaras, Senegalas

platuma: 14-44N, ilguma: 017-30W, Aukštis: 27 m

Dabartinis oras

Ataskaita buvo paskelbta 48 minutes, ne 03:00 UTC
Vėjas 12 kt iš Šiaurės/Šiaurės Vakarų
Temperatūra 21°C
Drėgmė 94%
Slėgis 1012 hPa
Matomumas: 8000 m

METAR: GOOY 220300Z 34012KT 8000 NSC 21/20 Q1012

Laikas: 03:48 (03:48 UTC)

Prognozė

Ataskaita buvo paskelbta 4 valandos ir 18 minutes, ne 23:30 UTC
Prognozė galioja nuo 22 metu 00 UTC su 23 metu 06 UTC
Vėjas 13 kt iš Šiaurės
Matomumas: 8000 m
Išsisklaidę debesys ne aukštis 800 ft
Tapsmas
nuo 22 metu 04 UTC su 22 metu 06 UTC
Matomumas: 3500 m
rūkana
Tapsmas
nuo 22 metu 08 UTC su 22 metu 10 UTC
Matomumas: 8000 m

TAF: GOOY 212330Z 2200/2306 36013KT 8000 SCT008 BECMG 2204/2206 3500 BR BECMG 2208/2210 8000 NSW NSC

Orai ataskaitas ir orų prognozės (METAR, TAF).

turimą stotys yra geltonos ir raudonos taškus žemėlapyje.

Perkelti pele per norėdami pamatyti stoties vardą.

Tada spustelėkite, norėdami matyti oro stebėjimo ir prognozės.

Norėdami pakeisti žemėlapį: spustelėkite ant žalios mygtukų su juodo kryžiaus žemyn,; žalią mygtuką su brūkšneliu, jei norite nutolinti; arba žalių rodyklių gretimoms žemėlapius.


METAR-TAF: